Time,TemperatureF,DewpointF,PressureIn,WindDirection,WindDirectionDegrees,WindSpeedMPH,WindSpeedGustMPH,Humidity,HourlyPrecipIn,Conditions,Clouds,dailyrainin,SoftwareType,DateUTC
2013-10-07 00:03:00,47.5,46.9,29.91,WNW,292,5.8,5.8,98,0.00,RA,,0.00,WeatherDisplay:10.37,2013-10-07 05:03:00,
2013-10-07 00:08:00,47.3,46.8,29.92,West,270,3.5,0.0,98,0.00,RA,,0.00,WeatherDisplay:10.37,2013-10-07 05:08:00,
2013-10-07 00:13:00,47.3,46.8,29.92,WNW,292,3.8,4.1,98,0.00,CLR,,0.00,WeatherDisplay:10.37,2013-10-07 05:13:00,
2013-10-07 00:18:00,47.1,46.9,29.92,West,270,3.5,3.5,99,0.00,CLR,,0.00,WeatherDisplay:10.37,2013-10-07 05:18:00,
2013-10-07 00:23:00,47.1,46.9,29.92,WNW,292,8.1,8.1,99,0.00,CLR,,0.00,WeatherDisplay:10.37,2013-10-07 05:23:00,
2013-10-07 00:28:00,47.1,46.9,29.92,WNW,292,0.0,0.5,99,0.00,CLR,,0.00,WeatherDisplay:10.37,2013-10-07 05:28:00,
2013-10-07 00:33:00,47.1,46.9,29.92,WNW,292,0.0,0.0,99,0.00,CLR,,0.00,WeatherDisplay:10.37,2013-10-07 05:33:00,
2013-10-07 00:38:00,46.9,46.7,29.92,WNW,292,0.0,0.0,99,0.00,CLR,,0.00,WeatherDisplay:10.37,2013-10-07 05:38:00,
2013-10-07 00:43:00,46.9,46.7,29.92,West,270,0.0,0.0,99,0.00,CLR,,0.00,WeatherDisplay:10.37,2013-10-07 05:43:00,
2013-10-07 00:48:00,46.8,46.5,29.92,WNW,292,0.0,0.0,99,0.00,CLR,,0.00,WeatherDisplay:10.37,2013-10-07 05:48:00,
2013-10-07 00:53:00,46.9,46.7,29.92,WNW,292,0.0,0.0,99,0.00,CLR,,0.00,WeatherDisplay:10.37,2013-10-07 05:53:00,
2013-10-07 00:58:00,46.8,46.2,29.92,WNW,292,0.0,0.0,98,0.00,CLR,,0.00,WeatherDisplay:10.37,2013-10-07 05:58:00,
2013-10-07 01:03:00,46.6,46.0,29.92,West,270,0.0,0.0,98,0.00,CLR,,0.00,WeatherDisplay:10.37,2013-10-07 06:03:00,
2013-10-07 01:08:00,46.6,46.0,29.92,WNW,292,0.0,0.0,98,0.00,CLR,,0.00,WeatherDisplay:10.37,2013-10-07 06:08:00,
2013-10-07 01:13:00,46.6,45.8,29.92,NW,315,2.3,2.5,97,0.00,CLR,,0.00,WeatherDisplay:10.37,2013-10-07 06:13:00,
2013-10-07 01:18:00,46.4,45.6,29.92,West,270,0.0,0.0,97,0.00,CLR,,0.00,WeatherDisplay:10.37,2013-10-07 06:18:00,
2013-10-07 01:23:00,46.0,45.2,29.92,WNW,292,2.3,2.3,97,0.00,CLR,,0.00,WeatherDisplay:10.37,2013-10-07 06:23:00,
2013-10-07 01:28:00,46.0,45.0,29.93,WNW,292,0.0,0.0,96,0.00,CLR,,0.00,WeatherDisplay:10.37,2013-10-07 06:28:00,
2013-10-07 01:33:00,45.9,44.8,29.93,WNW,292,0.0,0.0,96,0.00,CLR,,0.00,WeatherDisplay:10.37,2013-10-07 06:33:00,
2013-10-07 01:38:00,45.9,44.8,29.93,WNW,292,2.7,2.9,96,0.00,CLR,,0.00,WeatherDisplay:10.37,2013-10-07 06:38:00,
2013-10-07 01:43:00,45.7,44.6,29.93,West,270,3.5,3.5,96,0.00,CLR,,0.00,WeatherDisplay:10.37,2013-10-07 06:43:00,
2013-10-07 01:48:00,45.7,44.6,29.93,WNW,292,0.0,0.0,96,0.00,CLR,,0.00,WeatherDisplay:10.37,2013-10-07 06:48:00,
2013-10-07 01:53:00,45.5,44.2,29.93,West,270,8.1,8.1,95,0.00,CLR,,0.00,WeatherDisplay:10.37,2013-10-07 06:53:00,
2013-10-07 01:58:00,45.3,44.0,29.93,WNW,292,0.0,2.4,95,0.00,CLR,,0.00,WeatherDisplay:10.37,2013-10-07 06:58:00,
2013-10-07 02:03:00,45.1,43.8,29.93,West,270,1.1,1.1,95,0.00,CLR,,0.00,WeatherDisplay:10.37,2013-10-07 07:03:00,
2013-10-07 02:08:00,45.0,43.6,29.94,WNW,292,3.5,3.8,95,0.00,CLR,,0.00,WeatherDisplay:10.37,2013-10-07 07:08:00,
2013-10-07 02:13:00,44.8,43.4,29.94,West,270,0.0,0.0,95,0.00,CLR,,0.00,WeatherDisplay:10.37,2013-10-07 07:13:00,
2013-10-07 02:18:00,44.6,43.3,29.94,WNW,292,3.5,3.5,95,0.00,CLR,,0.00,WeatherDisplay:10.37,2013-10-07 07:18:00,
2013-10-07 02:23:00,44.2,42.9,29.94,West,270,2.3,2.7,95,0.00,CLR,,0.00,WeatherDisplay:10.37,2013-10-07 07:23:00,
2013-10-07 02:28:00,44.2,42.9,29.94,West,270,0.0,0.0,95,0.00,CLR,,0.00,WeatherDisplay:10.37,2013-10-07 07:28:00,
2013-10-07 02:33:00,44.1,42.7,29.94,WNW,292,0.0,0.0,95,0.00,CLR,,0.00,WeatherDisplay:10.37,2013-10-07 07:33:00,
2013-10-07 02:38:00,43.9,42.5,29.94,West,270,0.0,0.0,95,0.00,CLR,,0.00,WeatherDisplay:10.37,2013-10-07 07:38:00,
2013-10-07 02:43:00,43.7,42.4,29.93,West,270,2.4,2.4,95,0.00,CLR,,0.00,WeatherDisplay:10.37,2013-10-07 07:43:00,
2013-10-07 02:48:00,43.7,42.4,29.94,WNW,292,3.5,3.5,95,0.00,CLR,,0.00,WeatherDisplay:10.37,2013-10-07 07:48:00,
2013-10-07 02:53:00,43.5,42.5,29.94,NW,315,0.0,0.0,96,0.00,CLR,,0.00,WeatherDisplay:10.37,2013-10-07 07:53:00,
2013-10-07 02:58:00,43.3,42.3,29.94,West,270,3.5,3.5,96,0.00,CLR,,0.00,WeatherDisplay:10.37,2013-10-07 07:58:00,
2013-10-07 03:03:00,43.2,42.1,29.94,WNW,292,0.0,0.0,96,0.00,CLR,,0.00,WeatherDisplay:10.37,2013-10-07 08:03:00,
2013-10-07 03:08:00,43.0,41.9,29.94,West,270,0.0,0.0,96,0.00,CLR,,0.00,WeatherDisplay:10.37,2013-10-07 08:08:00,
2013-10-07 03:13:00,43.0,41.9,29.94,West,270,0.0,0.0,96,0.00,CLR,,0.00,WeatherDisplay:10.37,2013-10-07 08:13:00,
2013-10-07 03:18:00,42.6,41.6,29.94,West,270,0.0,0.0,96,0.00,CLR,,0.00,WeatherDisplay:10.37,2013-10-07 08:18:00,
2013-10-07 03:23:00,42.4,41.6,29.94,West,270,0.0,0.0,97,0.00,CLR,,0.00,WeatherDisplay:10.37,2013-10-07 08:23:00,
2013-10-07 03:28:00,42.4,41.6,29.94,WNW,292,0.0,0.0,97,0.00,CLR,,0.00,WeatherDisplay:10.37,2013-10-07 08:28:00,
2013-10-07 03:33:00,42.4,41.6,29.94,WNW,292,0.0,0.0,97,0.00,CLR,,0.00,WeatherDisplay:10.37,2013-10-07 08:33:00,
2013-10-07 03:38:00,42.3,41.5,29.94,West,270,0.0,0.0,97,0.00,CLR,,0.00,WeatherDisplay:10.37,2013-10-07 08:38:00,
2013-10-07 03:43:00,42.3,41.5,29.94,West,270,0.0,0.0,97,0.00,CLR,,0.00,WeatherDisplay:10.37,2013-10-07 08:43:00,
2013-10-07 03:48:00,42.3,41.5,29.94,West,270,0.0,0.0,97,0.00,CLR,,0.00,WeatherDisplay:10.37,2013-10-07 08:48:00,
2013-10-07 03:53:00,42.1,41.3,29.94,West,270,0.0,0.0,97,0.00,CLR,,0.00,WeatherDisplay:10.37,2013-10-07 08:53:00,
2013-10-07 03:58:00,41.9,41.1,29.94,WSW,248,3.5,0.0,97,0.00,CLR,,0.00,WeatherDisplay:10.37,2013-10-07 08:58:00,
2013-10-07 04:03:00,41.9,41.1,29.94,West,270,1.1,1.2,97,0.00,CLR,,0.00,WeatherDisplay:10.37,2013-10-07 09:03:00,
2013-10-07 04:08:00,41.7,40.9,29.94,West,270,1.6,1.7,97,0.00,CLR,,0.00,WeatherDisplay:10.37,2013-10-07 09:08:00,
2013-10-07 04:13:00,41.7,41.2,29.95,West,270,0.0,0.0,98,0.00,CLR,,0.00,WeatherDisplay:10.37,2013-10-07 09:13:00,
2013-10-07 04:18:00,41.7,41.2,29.95,West,270,0.0,0.0,98,0.00,CLR,,0.00,WeatherDisplay:10.37,2013-10-07 09:18:00,
2013-10-07 04:23:00,41.5,41.0,29.95,West,270,1.4,1.4,98,0.00,CLR,,0.00,WeatherDisplay:10.37,2013-10-07 09:23:00,
2013-10-07 04:28:00,41.5,41.3,29.95,WSW,248,2.3,2.3,99,0.00,CLR,,0.00,WeatherDisplay:10.37,2013-10-07 09:28:00,
2013-10-07 04:33:00,41.4,41.1,29.95,WSW,248,5.8,6.1,99,0.00,CLR,,0.00,WeatherDisplay:10.37,2013-10-07 09:33:00,
2013-10-07 04:38:00,41.4,41.1,29.95,West,270,2.3,2.3,99,0.00,CLR,,0.00,WeatherDisplay:10.37,2013-10-07 09:38:00,
2013-10-07 04:43:00,41.4,41.1,29.95,West,270,0.0,0.0,99,0.00,CLR,,0.00,WeatherDisplay:10.37,2013-10-07 09:43:00,
2013-10-07 04:48:00,41.2,40.9,29.94,West,270,2.3,2.3,99,0.00,CLR,,0.00,WeatherDisplay:10.37,2013-10-07 09:48:00,
2013-10-07 04:53:00,41.2,40.9,29.95,West,270,1.6,1.6,99,0.00,CLR,,0.00,WeatherDisplay:10.37,2013-10-07 09:53:00,
2013-10-07 04:58:00,41.2,40.9,29.95,West,270,0.0,0.0,99,0.00,CLR,,0.00,WeatherDisplay:10.37,2013-10-07 09:58:00,
2013-10-07 05:03:00,41.2,40.9,29.95,WSW,248,0.0,0.0,99,0.00,CLR,,0.00,WeatherDisplay:10.37,2013-10-07 10:03:00,
2013-10-07 05:08:00,41.2,40.9,29.95,West,270,1.4,1.4,99,0.00,CLR,,0.00,WeatherDisplay:10.37,2013-10-07 10:08:00,
2013-10-07 05:13:00,41.2,40.9,29.95,West,270,3.5,3.8,99,0.00,CLR,,0.00,WeatherDisplay:10.37,2013-10-07 10:13:00,
2013-10-07 05:18:00,41.2,40.9,29.95,West,270,0.0,0.0,99,0.00,CLR,,0.00,WeatherDisplay:10.37,2013-10-07 10:18:00,
2013-10-07 05:23:00,41.2,40.9,29.95,West,270,0.0,0.0,99,0.00,CLR,,0.00,WeatherDisplay:10.37,2013-10-07 10:23:00,
2013-10-07 05:28:00,41.2,40.9,29.95,West,270,0.0,0.0,99,0.00,CLR,,0.00,WeatherDisplay:10.37,2013-10-07 10:28:00,
2013-10-07 05:33:00,41.2,40.9,29.95,West,270,1.6,0.0,99,0.00,CLR,,0.00,WeatherDisplay:10.37,2013-10-07 10:33:00,
2013-10-07 05:38:00,41.0,40.7,29.95,West,270,0.0,0.0,99,0.00,CLR,,0.00,WeatherDisplay:10.37,2013-10-07 10:38:00,
2013-10-07 05:43:00,40.8,40.6,29.95,West,270,0.0,0.0,99,0.00,CLR,,0.00,WeatherDisplay:10.37,2013-10-07 10:43:00,
2013-10-07 05:48:00,40.8,40.6,29.95,West,270,0.0,0.0,99,0.00,CLR,,0.00,WeatherDisplay:10.37,2013-10-07 10:48:00,
2013-10-07 05:53:00,40.8,40.6,29.95,West,270,2.3,2.3,99,0.00,CLR,,0.00,WeatherDisplay:10.37,2013-10-07 10:53:00,
2013-10-07 05:58:00,40.6,40.4,29.95,West,270,0.0,0.0,99,0.00,CLR,,0.00,WeatherDisplay:10.37,2013-10-07 10:58:00,
2013-10-07 06:03:00,40.6,40.4,29.95,West,270,0.0,0.0,99,0.00,CLR,,0.00,WeatherDisplay:10.37,2013-10-07 11:03:00,
2013-10-07 06:08:00,40.6,40.4,29.96,West,270,0.0,0.0,99,0.00,CLR,,0.00,WeatherDisplay:10.37,2013-10-07 11:08:00,
2013-10-07 06:13:00,40.6,40.4,29.96,West,270,0.0,0.0,99,0.00,CLR,,0.00,WeatherDisplay:10.37,2013-10-07 11:13:00,
2013-10-07 06:18:00,40.5,40.2,29.96,West,270,0.0,0.0,99,0.00,CLR,,0.00,WeatherDisplay:10.37,2013-10-07 11:18:00,
2013-10-07 06:23:00,40.5,40.2,29.96,West,270,0.0,0.0,99,0.00,CLR,,0.00,WeatherDisplay:10.37,2013-10-07 11:23:00,
2013-10-07 06:28:00,40.5,40.2,29.96,West,270,0.0,0.0,99,0.00,CLR,,0.00,WeatherDisplay:10.37,2013-10-07 11:28:00,
2013-10-07 06:33:00,40.5,40.2,29.96,West,270,0.0,0.0,99,0.00,CLR,,0.00,WeatherDisplay:10.37,2013-10-07 11:33:00,
2013-10-07 06:38:00,40.3,40.0,29.96,West,270,1.1,1.2,99,0.00,CLR,,0.00,WeatherDisplay:10.37,2013-10-07 11:38:00,
2013-10-07 06:43:00,40.3,40.0,29.96,West,270,0.0,0.0,99,0.00,CLR,,0.00,WeatherDisplay:10.37,2013-10-07 11:43:00,
2013-10-07 06:48:00,40.3,40.3,29.96,West,270,0.0,0.0,100,0.00,,,0.00,WeatherDisplay:10.37,2013-10-07 11:48:00,
2013-10-07 06:53:00,40.3,40.3,29.96,West,270,0.0,0.0,100,0.00,,,0.00,WeatherDisplay:10.37,2013-10-07 11:53:00,
2013-10-07 06:58:00,40.1,40.1,29.96,WSW,248,2.4,2.4,100,0.00,,,0.00,WeatherDisplay:10.37,2013-10-07 11:58:00,
2013-10-07 07:03:00,40.3,40.3,29.97,WSW,248,4.9,5.2,100,0.00,,,0.00,WeatherDisplay:10.37,2013-10-07 12:03:00,
2013-10-07 07:08:00,40.1,40.1,29.97,WSW,248,1.1,1.4,100,0.00,,,0.00,WeatherDisplay:10.37,2013-10-07 12:08:00,
2013-10-07 07:13:00,40.5,40.5,29.97,WSW,248,3.5,3.5,100,0.00,,,0.00,WeatherDisplay:10.37,2013-10-07 12:13:00,
2013-10-07 07:18:00,40.5,40.5,29.97,WSW,248,5.8,6.4,100,0.00,,,0.00,WeatherDisplay:10.37,2013-10-07 12:18:00,
2013-10-07 07:23:00,40.6,40.6,29.97,WSW,248,7.0,7.5,100,0.00,,,0.00,WeatherDisplay:10.37,2013-10-07 12:23:00,
2013-10-07 07:28:00,41.2,41.2,29.97,WSW,248,3.5,3.5,100,0.00,,,0.00,WeatherDisplay:10.37,2013-10-07 12:28:00,
2013-10-07 07:33:00,42.1,42.1,29.97,West,270,5.8,5.8,100,0.00,,,0.00,WeatherDisplay:10.37,2013-10-07 12:33:00,
2013-10-07 07:38:00,43.3,43.3,29.97,WSW,248,1.4,1.4,100,0.00,,,0.00,WeatherDisplay:10.37,2013-10-07 12:38:00,
2013-10-07 07:43:00,46.0,46.0,29.97,WSW,248,8.1,8.1,100,0.00,,,0.00,WeatherDisplay:10.37,2013-10-07 12:43:00,
2013-10-07 07:48:00,48.2,48.2,29.97,WSW,248,0.0,0.0,100,0.00,CLR,,0.00,WeatherDisplay:10.37,2013-10-07 12:48:00,
2013-10-07 07:53:00,51.3,50.2,29.97,West,270,0.0,0.3,96,0.00,CLR,,0.00,WeatherDisplay:10.37,2013-10-07 12:53:00,
2013-10-07 07:58:00,52.7,49.5,29.97,WSW,248,5.8,5.8,89,0.00,CLR,,0.00,WeatherDisplay:10.37,2013-10-07 12:58:00,
2013-10-07 08:03:00,54.5,49.8,29.99,WSW,248,4.6,4.9,84,0.00,CLR,,0.00,WeatherDisplay:10.37,2013-10-07 13:03:00,
2013-10-07 08:08:00,56.8,50.1,29.99,WSW,248,7.0,7.0,78,0.00,CLR,,0.00,WeatherDisplay:10.37,2013-10-07 13:08:00,
2013-10-07 08:13:00,57.2,48.3,29.99,West,270,8.1,8.1,72,0.00,CLR,,0.00,WeatherDisplay:10.37,2013-10-07 13:13:00,
2013-10-07 08:18:00,57.4,48.1,29.99,West,270,1.1,1.9,71,0.00,CLR,,0.00,WeatherDisplay:10.37,2013-10-07 13:18:00,
2013-10-07 08:23:00,57.0,47.3,29.99,WSW,248,6.9,7.4,70,0.00,CLR,,0.00,WeatherDisplay:10.37,2013-10-07 13:23:00,
2013-10-07 08:28:00,56.8,46.8,29.99,WSW,248,6.9,6.9,69,0.00,CLR,,0.00,WeatherDisplay:10.37,2013-10-07 13:28:00,
2013-10-07 08:33:00,56.8,47.2,29.99,WSW,248,6.9,7.2,70,0.00,CLR,,0.00,WeatherDisplay:10.37,2013-10-07 13:33:00,
2013-10-07 08:38:00,57.2,47.9,29.99,West,270,6.9,6.9,71,0.00,CLR,,0.00,WeatherDisplay:10.37,2013-10-07 13:38:00,
2013-10-07 08:43:00,57.6,48.6,30.00,West,270,4.6,0.0,72,0.00,CLR,,0.00,WeatherDisplay:10.37,2013-10-07 13:43:00,
2013-10-07 08:48:00,57.9,48.9,30.00,WSW,248,4.9,5.2,72,0.00,CLR,,0.00,WeatherDisplay:10.37,2013-10-07 13:48:00,
2013-10-07 08:53:00,58.6,48.9,30.00,West,270,7.0,7.0,70,0.00,CLR,,0.00,WeatherDisplay:10.37,2013-10-07 13:53:00,
2013-10-07 08:58:00,58.8,49.1,30.00,WNW,292,0.0,0.0,70,0.00,CLR,,0.00,WeatherDisplay:10.37,2013-10-07 13:58:00,
2013-10-07 09:03:00,59.0,49.2,30.00,West,270,0.3,0.3,70,0.00,CLR,,0.00,WeatherDisplay:10.37,2013-10-07 14:03:00,
2013-10-07 09:08:00,59.7,49.9,30.00,WNW,292,0.0,0.0,70,0.00,CLR,,0.00,WeatherDisplay:10.37,2013-10-07 14:08:00,
2013-10-07 09:13:00,59.7,49.1,30.00,West,270,8.1,8.1,68,0.00,CLR,,0.00,WeatherDisplay:10.37,2013-10-07 14:13:00,
2013-10-07 09:18:00,59.9,49.7,30.01,West,270,5.8,6.1,69,0.00,CLR,,0.00,WeatherDisplay:10.37,2013-10-07 14:18:00,
2013-10-07 09:23:00,60.3,49.3,30.00,West,270,3.8,3.8,67,0.00,CLR,,0.00,WeatherDisplay:10.37,2013-10-07 14:23:00,
2013-10-07 09:28:00,60.1,49.1,30.01,WNW,292,8.1,8.1,67,0.00,CLR,,0.00,WeatherDisplay:10.37,2013-10-07 14:28:00,
2013-10-07 09:33:00,60.3,49.3,30.01,West,270,9.2,9.5,67,0.00,CLR,,0.00,WeatherDisplay:10.37,2013-10-07 14:33:00,
2013-10-07 09:38:00,59.9,48.5,30.01,WNW,292,9.2,9.2,66,0.00,CLR,,0.00,WeatherDisplay:10.37,2013-10-07 14:38:00,
2013-10-07 09:43:00,60.1,48.7,30.01,WSW,248,9.2,9.8,66,0.00,CLR,,0.00,WeatherDisplay:10.37,2013-10-07 14:43:00,
2013-10-07 09:48:00,60.1,48.7,30.01,WSW,248,8.1,8.1,66,0.00,CLR,,0.00,WeatherDisplay:10.37,2013-10-07 14:48:00,
2013-10-07 09:53:00,60.4,49.0,30.02,West,270,7.3,7.3,66,0.00,CLR,,0.00,WeatherDisplay:10.37,2013-10-07 14:53:00,
2013-10-07 09:58:00,60.6,48.8,30.02,WSW,248,9.2,9.2,65,0.00,CLR,,0.00,WeatherDisplay:10.37,2013-10-07 14:58:00,
2013-10-07 10:03:00,60.6,48.8,30.02,WSW,248,9.2,10.1,65,0.00,CLR,,0.00,WeatherDisplay:10.37,2013-10-07 15:03:00,
2013-10-07 10:08:00,61.2,49.3,30.02,West,270,9.2,9.2,65,0.00,CLR,,0.00,WeatherDisplay:10.37,2013-10-07 15:08:00,
2013-10-07 10:13:00,61.5,49.6,30.02,WSW,248,9.2,9.2,65,0.00,CLR,,0.00,WeatherDisplay:10.37,2013-10-07 15:13:00,
2013-10-07 10:18:00,62.1,49.7,30.02,West,270,6.2,6.2,64,0.00,CLR,,0.00,WeatherDisplay:10.37,2013-10-07 15:18:00,
2013-10-07 10:23:00,62.2,49.9,30.02,WSW,248,8.1,8.1,64,0.00,CLR,,0.00,WeatherDisplay:10.37,2013-10-07 15:23:00,
2013-10-07 10:28:00,62.4,50.1,30.02,WSW,248,9.2,9.5,64,0.00,CLR,,0.00,WeatherDisplay:10.37,2013-10-07 15:28:00,
2013-10-07 10:33:00,62.8,49.6,30.02,West,270,10.4,10.4,62,0.00,CLR,,0.00,WeatherDisplay:10.37,2013-10-07 15:33:00,
2013-10-07 10:38:00,63.0,49.7,30.02,WSW,248,9.2,9.2,62,0.00,CLR,,0.00,WeatherDisplay:10.37,2013-10-07 15:38:00,
2013-10-07 10:44:00,63.3,50.1,30.02,WSW,248,9.2,9.3,62,0.00,CLR,,0.00,WeatherDisplay:10.37,2013-10-07 15:44:00,
2013-10-07 10:49:00,63.5,49.4,30.02,WSW,248,10.4,11.5,60,0.00,CLR,,0.00,WeatherDisplay:10.37,2013-10-07 15:49:00,
2013-10-07 10:54:00,64.0,49.4,30.02,West,270,8.1,8.4,59,0.00,CLR,,0.00,WeatherDisplay:10.37,2013-10-07 15:54:00,
2013-10-07 10:59:00,64.8,50.1,30.02,West,270,10.5,11.3,59,0.00,CLR,,0.00,WeatherDisplay:10.37,2013-10-07 15:59:00,
2013-10-07 11:04:00,65.3,49.7,30.02,WSW,248,8.9,8.9,57,0.00,CLR,,0.00,WeatherDisplay:10.37,2013-10-07 16:04:00,
2013-10-07 11:09:00,65.7,49.5,30.02,West,270,6.9,7.5,56,0.00,CLR,,0.00,WeatherDisplay:10.37,2013-10-07 16:09:00,
2013-10-07 11:14:00,65.8,49.2,30.02,WSW,248,12.7,13.9,55,0.00,CLR,,0.00,WeatherDisplay:10.37,2013-10-07 16:14:00,
2013-10-07 11:19:00,66.4,49.2,30.02,West,270,9.2,9.2,54,0.00,CLR,,0.00,WeatherDisplay:10.37,2013-10-07 16:19:00,
2013-10-07 11:24:00,66.7,49.1,30.02,WSW,248,9.2,9.2,53,0.00,CLR,,0.00,WeatherDisplay:10.37,2013-10-07 16:24:00,
2013-10-07 11:29:00,67.1,49.4,30.02,West,270,9.2,9.8,53,0.00,CLR,,0.00,WeatherDisplay:10.37,2013-10-07 16:29:00,
2013-10-07 11:34:00,67.5,48.7,30.02,WSW,248,4.6,4.6,51,0.00,CLR,,0.00,WeatherDisplay:10.37,2013-10-07 16:34:00,
2013-10-07 11:39:00,68.2,49.9,30.02,West,270,8.1,8.4,52,0.00,CLR,,0.00,WeatherDisplay:10.37,2013-10-07 16:39:00,
2013-10-07 11:44:00,68.4,49.5,30.02,West,270,5.9,6.4,51,0.00,CLR,,0.00,WeatherDisplay:10.37,2013-10-07 16:44:00,
2013-10-07 11:49:00,68.9,50.0,30.02,WSW,248,16.5,16.5,51,0.00,CLR,,0.00,WeatherDisplay:10.37,2013-10-07 16:49:00,
2013-10-07 11:54:00,69.3,48.7,30.02,WNW,292,9.2,9.2,48,0.00,CLR,,0.00,WeatherDisplay:10.37,2013-10-07 16:54:00,
2013-10-07 11:59:00,69.4,48.9,30.02,West,270,10.4,11.0,48,0.00,CLR,,0.00,WeatherDisplay:10.37,2013-10-07 16:59:00,
2013-10-07 12:04:00,69.4,48.9,30.02,West,270,8.1,8.4,48,0.00,CLR,,0.00,WeatherDisplay:10.37,2013-10-07 17:04:00,
2013-10-07 12:09:00,70.0,49.4,30.02,West,270,10.4,10.4,48,0.00,CLR,,0.00,WeatherDisplay:10.37,2013-10-07 17:09:00,
2013-10-07 12:14:00,70.2,49.5,30.02,West,270,13.8,14.2,48,0.00,CLR,,0.00,WeatherDisplay:10.37,2013-10-07 17:14:00,
2013-10-07 12:19:00,70.5,49.3,30.02,WSW,248,11.4,11.4,47,0.00,CLR,,0.00,WeatherDisplay:10.37,2013-10-07 17:19:00,
2013-10-07 12:24:00,70.3,48.6,30.01,WSW,248,11.5,11.5,46,0.00,CLR,,0.00,WeatherDisplay:10.37,2013-10-07 17:24:00,
2013-10-07 12:29:00,70.5,49.9,30.01,WSW,248,10.4,10.7,48,0.00,CLR,,0.00,WeatherDisplay:10.37,2013-10-07 17:29:00,
2013-10-07 12:34:00,71.1,49.2,30.01,WSW,248,9.2,9.2,46,0.00,CLR,,0.00,WeatherDisplay:10.37,2013-10-07 17:34:00,
2013-10-07 12:39:00,71.2,48.8,30.01,WSW,248,9.2,9.2,45,0.00,CLR,,0.00,WeatherDisplay:10.37,2013-10-07 17:39:00,
2013-10-07 12:44:00,71.1,48.0,30.01,West,270,9.2,9.3,44,0.00,CLR,,0.00,WeatherDisplay:10.37,2013-10-07 17:44:00,
2013-10-07 12:49:00,71.1,48.0,30.01,West,270,10.4,10.4,44,0.00,CLR,,0.00,WeatherDisplay:10.37,2013-10-07 17:49:00,
2013-10-07 12:54:00,71.2,47.6,30.01,WSW,248,10.4,11.6,43,0.00,CLR,,0.00,WeatherDisplay:10.37,2013-10-07 17:54:00,
2013-10-07 12:59:00,71.2,47.6,30.01,WSW,248,15.0,15.5,43,0.00,CLR,,0.00,WeatherDisplay:10.37,2013-10-07 17:59:00,
2013-10-07 13:04:00,71.2,47.6,30.00,West,270,10.4,10.7,43,0.00,CLR,,0.00,WeatherDisplay:10.37,2013-10-07 18:04:00,
2013-10-07 13:09:00,71.6,47.9,30.00,West,270,10.4,10.7,43,0.00,CLR,,0.00,WeatherDisplay:10.37,2013-10-07 18:09:00,
2013-10-07 13:14:00,72.0,48.2,30.00,West,270,16.1,16.1,43,0.00,CLR,,0.00,WeatherDisplay:10.37,2013-10-07 18:14:00,
2013-10-07 13:19:00,72.1,47.8,30.00,WSW,248,15.4,16.0,42,0.00,CLR,,0.00,WeatherDisplay:10.37,2013-10-07 18:19:00,
2013-10-07 13:24:00,72.3,47.9,30.00,WSW,248,12.7,12.7,42,0.00,CLR,,0.00,WeatherDisplay:10.37,2013-10-07 18:24:00,
2013-10-07 13:29:00,72.3,47.9,30.00,WSW,248,12.7,12.9,42,0.00,CLR,,0.00,WeatherDisplay:10.37,2013-10-07 18:29:00,
2013-10-07 13:34:00,72.5,48.1,30.00,West,270,15.0,15.6,42,0.00,CLR,,0.00,WeatherDisplay:10.37,2013-10-07 18:34:00,
2013-10-07 13:39:00,72.9,48.4,30.00,WSW,248,15.0,15.6,42,0.00,CLR,,0.00,WeatherDisplay:10.37,2013-10-07 18:39:00,
2013-10-07 13:44:00,72.9,47.8,30.00,West,270,15.1,16.0,41,0.00,CLR,,0.00,WeatherDisplay:10.37,2013-10-07 18:44:00,
2013-10-07 13:49:00,72.9,47.1,29.99,West,270,11.5,11.5,40,0.00,CLR,,0.00,WeatherDisplay:10.37,2013-10-07 18:49:00,
2013-10-07 13:54:00,73.0,47.9,29.99,WSW,248,12.7,13.3,41,0.00,CLR,,0.00,WeatherDisplay:10.37,2013-10-07 18:54:00,
2013-10-07 13:59:00,73.2,47.4,29.99,WSW,248,9.2,12.4,40,0.00,CLR,,0.00,WeatherDisplay:10.37,2013-10-07 18:59:00,
2013-10-07 14:04:00,73.2,47.4,29.99,West,270,15.0,15.6,40,0.00,CLR,,0.00,WeatherDisplay:10.37,2013-10-07 19:04:00,
2013-10-07 14:09:00,73.2,47.4,29.99,WSW,248,10.8,11.6,40,0.00,CLR,,0.00,WeatherDisplay:10.37,2013-10-07 19:09:00,
2013-10-07 14:14:00,73.2,46.8,29.99,West,270,16.8,16.8,39,0.00,CLR,,0.00,WeatherDisplay:10.37,2013-10-07 19:14:00,
2013-10-07 14:19:00,73.2,47.4,29.99,WSW,248,11.9,12.7,40,0.00,CLR,,0.00,WeatherDisplay:10.37,2013-10-07 19:19:00,
2013-10-07 14:24:00,73.6,47.1,29.99,WSW,248,8.4,9.0,39,0.00,CLR,,0.00,WeatherDisplay:10.37,2013-10-07 19:24:00,
2013-10-07 14:29:00,73.8,47.9,29.99,WSW,248,15.0,15.0,40,0.00,CLR,,0.00,WeatherDisplay:10.37,2013-10-07 19:29:00,
2013-10-07 14:34:00,73.8,48.6,29.99,WSW,248,14.1,15.0,41,0.00,CLR,,0.00,WeatherDisplay:10.37,2013-10-07 19:34:00,
2013-10-07 14:39:00,73.8,47.9,29.99,West,270,12.7,13.3,40,0.00,CLR,,0.00,WeatherDisplay:10.37,2013-10-07 19:39:00,
2013-10-07 14:44:00,73.9,47.4,29.99,WSW,248,9.2,9.3,39,0.00,CLR,,0.00,WeatherDisplay:10.37,2013-10-07 19:44:00,
2013-10-07 14:49:00,73.9,47.4,29.99,WSW,248,6.9,7.8,39,0.00,CLR,,0.00,WeatherDisplay:10.37,2013-10-07 19:49:00,
2013-10-07 14:54:00,74.1,47.6,29.99,WSW,248,10.8,11.0,39,0.00,CLR,,0.00,WeatherDisplay:10.37,2013-10-07 19:54:00,
2013-10-07 14:59:00,73.9,46.7,29.99,WSW,248,6.9,7.2,38,0.00,CLR,,0.00,WeatherDisplay:10.37,2013-10-07 19:59:00,
2013-10-07 15:04:00,73.9,47.4,29.99,WSW,248,9.2,9.2,39,0.00,CLR,,0.00,WeatherDisplay:10.37,2013-10-07 20:04:00,
2013-10-07 15:09:00,74.1,47.6,29.99,WSW,248,12.7,13.7,39,0.00,CLR,,0.00,WeatherDisplay:10.37,2013-10-07 20:09:00,
2013-10-07 15:14:00,74.1,47.6,29.99,WSW,248,13.8,14.3,39,0.00,CLR,,0.00,WeatherDisplay:10.37,2013-10-07 20:14:00,
2013-10-07 15:19:00,74.3,47.7,29.99,WSW,248,13.8,13.8,39,0.00,CLR,,0.00,WeatherDisplay:10.37,2013-10-07 20:19:00,
2013-10-07 15:24:00,74.3,47.0,29.99,WSW,248,12.2,12.2,38,0.00,CLR,,0.00,WeatherDisplay:10.37,2013-10-07 20:24:00,
2013-10-07 15:29:00,74.3,47.0,29.99,West,270,11.5,12.1,38,0.00,CLR,,0.00,WeatherDisplay:10.37,2013-10-07 20:29:00,
2013-10-07 15:34:00,74.1,46.2,29.99,West,270,15.0,15.6,37,0.00,CLR,,0.00,WeatherDisplay:10.37,2013-10-07 20:34:00,
2013-10-07 15:39:00,73.9,46.0,29.99,WSW,248,8.1,8.3,37,0.00,CLR,,0.00,WeatherDisplay:10.37,2013-10-07 20:39:00,
2013-10-07 15:44:00,73.9,46.0,29.97,WSW,248,16.1,16.1,37,0.00,CLR,,0.00,WeatherDisplay:10.37,2013-10-07 20:44:00,
2013-10-07 15:49:00,73.9,46.0,29.99,WSW,248,11.5,12.2,37,0.00,CLR,,0.00,WeatherDisplay:10.37,2013-10-07 20:49:00,
2013-10-07 15:54:00,73.9,46.0,29.99,West,270,4.6,5.5,37,0.00,CLR,,0.00,WeatherDisplay:10.37,2013-10-07 20:54:00,
2013-10-07 15:59:00,73.9,46.0,29.97,WSW,248,11.5,12.4,37,0.00,CLR,,0.00,WeatherDisplay:10.37,2013-10-07 20:59:00,
2013-10-07 16:04:00,73.9,44.5,29.97,West,270,15.0,15.6,35,0.00,CLR,,0.00,WeatherDisplay:10.37,2013-10-07 21:04:00,
2013-10-07 16:09:00,73.8,45.1,29.97,WSW,248,11.5,13.2,36,0.00,CLR,,0.00,WeatherDisplay:10.37,2013-10-07 21:09:00,
2013-10-07 16:14:00,73.9,46.0,29.97,WSW,248,11.5,11.7,37,0.00,CLR,,0.00,WeatherDisplay:10.37,2013-10-07 21:14:00,
2013-10-07 16:19:00,73.9,46.0,29.97,WSW,248,10.4,10.7,37,0.00,CLR,,0.00,WeatherDisplay:10.37,2013-10-07 21:19:00,
2013-10-07 16:24:00,73.9,46.7,29.97,SW,225,8.1,8.9,38,0.00,CLR,,0.00,WeatherDisplay:10.37,2013-10-07 21:24:00,
2013-10-07 16:29:00,73.9,47.4,29.97,WSW,248,9.2,9.5,39,0.00,CLR,,0.00,WeatherDisplay:10.37,2013-10-07 21:29:00,
2013-10-07 16:34:00,73.9,46.7,29.97,West,270,10.5,11.3,38,0.00,CLR,,0.00,WeatherDisplay:10.37,2013-10-07 21:34:00,
2013-10-07 16:39:00,73.8,46.6,29.97,West,270,2.3,3.1,38,0.00,CLR,,0.00,WeatherDisplay:10.37,2013-10-07 21:39:00,
2013-10-07 16:44:00,73.6,46.4,29.97,WSW,248,12.7,12.7,38,0.00,CLR,,0.00,WeatherDisplay:10.37,2013-10-07 21:44:00,
2013-10-07 16:49:00,73.6,46.4,29.97,WSW,248,9.2,9.3,38,0.00,CLR,,0.00,WeatherDisplay:10.37,2013-10-07 21:49:00,
2013-10-07 16:54:00,73.2,46.8,29.97,WSW,248,9.2,9.2,39,0.00,CLR,,0.00,WeatherDisplay:10.37,2013-10-07 21:54:00,
2013-10-07 16:59:00,73.2,46.8,29.97,WSW,248,8.1,9.0,39,0.00,CLR,,0.00,WeatherDisplay:10.37,2013-10-07 21:59:00,
2013-10-07 17:04:00,73.2,46.1,29.97,WSW,248,8.1,8.4,38,0.00,CLR,,0.00,WeatherDisplay:10.37,2013-10-07 22:04:00,
2013-10-07 17:09:00,73.2,46.1,29.97,WSW,248,8.1,8.4,38,0.00,CLR,,0.00,WeatherDisplay:10.37,2013-10-07 22:09:00,
2013-10-07 17:14:00,73.2,46.1,29.97,WSW,248,8.1,8.4,38,0.00,CLR,,0.00,WeatherDisplay:10.37,2013-10-07 22:14:00,
2013-10-07 17:19:00,73.2,46.1,29.97,WSW,248,8.1,8.4,38,0.00,CLR,,0.00,WeatherDisplay:10.37,2013-10-07 22:19:00,
2013-10-07 17:24:00,73.2,46.1,29.97,WSW,248,8.1,8.4,38,0.00,CLR,,0.00,WeatherDisplay:10.37,2013-10-07 22:24:00,
2013-10-07 17:29:00,73.2,46.1,29.97,WSW,248,8.1,8.4,38,0.00,CLR,,0.00,WeatherDisplay:10.37,2013-10-07 22:29:00,
2013-10-07 17:34:00,73.2,46.1,29.97,WSW,248,8.1,8.4,38,0.00,CLR,,0.00,WeatherDisplay:10.37,2013-10-07 22:34:00,
2013-10-07 17:39:00,73.2,46.1,29.97,WSW,248,8.1,8.4,38,0.00,CLR,,0.00,WeatherDisplay:10.37,2013-10-07 22:39:00,
2013-10-07 17:44:00,73.2,46.1,29.97,WSW,248,8.1,8.4,38,0.00,CLR,,0.00,WeatherDisplay:10.37,2013-10-07 22:44:00,
2013-10-07 17:49:00,73.2,46.1,29.97,WSW,248,8.1,8.4,38,0.00,CLR,,0.00,WeatherDisplay:10.37,2013-10-07 22:49:00,
2013-10-07 17:54:00,73.2,46.1,29.97,WSW,248,8.1,8.4,38,0.00,CLR,,0.00,WeatherDisplay:10.37,2013-10-07 22:54:00,
2013-10-07 17:59:00,73.2,46.1,29.97,WSW,248,8.1,8.4,38,0.00,CLR,,0.00,WeatherDisplay:10.37,2013-10-07 22:59:00,
2013-10-07 18:04:00,73.2,46.1,29.97,WSW,248,8.1,8.4,38,0.00,CLR,,0.00,WeatherDisplay:10.37,2013-10-07 23:04:00,
2013-10-07 18:09:00,73.2,46.1,29.97,WSW,248,8.1,8.4,38,0.00,CLR,,0.00,WeatherDisplay:10.37,2013-10-07 23:09:00,
2013-10-07 18:14:00,73.2,46.1,29.97,WSW,248,8.1,8.4,38,0.00,CLR,,0.00,WeatherDisplay:10.37,2013-10-07 23:14:00,
2013-10-07 18:19:00,73.2,46.1,29.97,WSW,248,8.1,8.4,38,0.00,CLR,,0.00,WeatherDisplay:10.37,2013-10-07 23:19:00,
2013-10-07 18:24:00,73.2,46.1,29.97,WSW,248,8.1,8.4,38,0.00,CLR,,0.00,WeatherDisplay:10.37,2013-10-07 23:24:00,
2013-10-07 18:29:00,73.2,46.1,29.97,WSW,248,8.1,8.4,38,0.00,CLR,,0.00,WeatherDisplay:10.37,2013-10-07 23:29:00,
2013-10-07 18:34:00,73.2,46.1,29.97,WSW,248,8.1,8.4,38,0.00,CLR,,0.00,WeatherDisplay:10.37,2013-10-07 23:34:00,
2013-10-07 18:39:00,73.2,46.1,29.97,WSW,248,8.1,8.4,38,0.00,CLR,,0.00,WeatherDisplay:10.37,2013-10-07 23:39:00,
2013-10-07 18:44:00,73.2,46.1,29.97,WSW,248,8.1,8.4,38,0.00,CLR,,0.00,WeatherDisplay:10.37,2013-10-07 23:44:00,
2013-10-07 18:49:00,73.2,46.1,29.97,WSW,248,8.1,8.4,38,0.00,CLR,,0.00,WeatherDisplay:10.37,2013-10-07 23:49:00,
2013-10-07 18:54:00,73.2,46.1,29.97,WSW,248,8.1,8.4,38,0.00,CLR,,0.00,WeatherDisplay:10.37,2013-10-07 23:54:00,
2013-10-07 18:59:00,73.2,46.1,29.97,WSW,248,8.1,8.4,38,0.00,CLR,,0.00,WeatherDisplay:10.37,2013-10-07 23:59:00,
2013-10-07 19:04:00,73.2,46.1,29.97,WSW,248,8.1,8.4,38,0.00,CLR,,0.00,WeatherDisplay:10.37,2013-10-08 00:04:00,
2013-10-07 19:09:00,73.2,46.1,29.97,WSW,248,8.1,8.4,38,0.00,CLR,,0.00,WeatherDisplay:10.37,2013-10-08 00:09:00,
2013-10-07 19:14:00,73.2,46.1,29.97,WSW,248,8.1,8.4,38,0.00,CLR,,0.00,WeatherDisplay:10.37,2013-10-08 00:14:00,
2013-10-07 19:19:00,73.2,46.1,29.97,WSW,248,8.1,8.4,38,0.00,CLR,,0.00,WeatherDisplay:10.37,2013-10-08 00:19:00,
2013-10-07 19:24:00,73.2,46.1,29.97,WSW,248,8.1,8.4,38,0.00,CLR,,0.00,WeatherDisplay:10.37,2013-10-08 00:24:00,
2013-10-07 19:29:00,73.2,46.1,29.97,WSW,248,8.1,8.4,38,0.00,CLR,,0.00,WeatherDisplay:10.37,2013-10-08 00:29:00,
2013-10-07 19:34:00,73.2,46.1,29.97,WSW,248,8.1,8.4,38,0.00,CLR,,0.00,WeatherDisplay:10.37,2013-10-08 00:34:00,
2013-10-07 19:39:00,73.2,46.1,29.97,WSW,248,8.1,8.4,38,0.00,CLR,,0.00,WeatherDisplay:10.37,2013-10-08 00:39:00,
2013-10-07 19:44:00,73.2,46.1,29.97,WSW,248,8.1,8.4,38,0.00,CLR,,0.00,WeatherDisplay:10.37,2013-10-08 00:44:00,
2013-10-07 19:49:00,73.2,46.1,29.97,WSW,248,8.1,8.4,38,0.00,CLR,,0.00,WeatherDisplay:10.37,2013-10-08 00:49:00,
2013-10-07 19:54:00,73.2,46.1,29.97,WSW,248,8.1,8.4,38,0.00,CLR,,0.00,WeatherDisplay:10.37,2013-10-08 00:54:00,
2013-10-07 19:59:00,73.2,46.1,29.97,WSW,248,8.1,8.4,38,0.00,CLR,,0.00,WeatherDisplay:10.37,2013-10-08 00:59:00,
2013-10-07 20:04:00,73.2,46.1,29.97,WSW,248,8.1,8.4,38,0.00,CLR,,0.00,WeatherDisplay:10.37,2013-10-08 01:04:00,
2013-10-07 20:09:00,73.2,46.1,29.97,WSW,248,8.1,8.4,38,0.00,CLR,,0.00,WeatherDisplay:10.37,2013-10-08 01:09:00,
2013-10-07 20:14:00,73.2,46.1,29.97,WSW,248,8.1,8.4,38,0.00,CLR,,0.00,WeatherDisplay:10.37,2013-10-08 01:14:00,
2013-10-07 20:19:00,73.2,46.1,29.97,WSW,248,8.1,8.4,38,0.00,CLR,,0.00,WeatherDisplay:10.37,2013-10-08 01:19:00,
2013-10-07 20:24:00,73.2,46.1,29.97,WSW,248,8.1,8.4,38,0.00,CLR,,0.00,WeatherDisplay:10.37,2013-10-08 01:24:00,
2013-10-07 20:29:00,73.2,46.1,29.97,WSW,248,8.1,8.4,38,0.00,CLR,,0.00,WeatherDisplay:10.37,2013-10-08 01:29:00,
2013-10-07 20:34:00,73.2,46.1,29.97,WSW,248,8.1,8.4,38,0.00,CLR,,0.00,WeatherDisplay:10.37,2013-10-08 01:34:00,
2013-10-07 20:39:00,73.2,46.1,29.97,WSW,248,8.1,8.4,38,0.00,CLR,,0.00,WeatherDisplay:10.37,2013-10-08 01:39:00,
2013-10-07 20:44:00,73.2,46.1,29.97,WSW,248,8.1,8.4,38,0.00,CLR,,0.00,WeatherDisplay:10.37,2013-10-08 01:44:00,
2013-10-07 20:49:00,73.2,46.1,29.97,WSW,248,8.1,8.4,38,0.00,CLR,,0.00,WeatherDisplay:10.37,2013-10-08 01:49:00,
2013-10-07 20:54:00,73.2,46.1,29.97,WSW,248,8.1,8.4,38,0.00,CLR,,0.00,WeatherDisplay:10.37,2013-10-08 01:54:00,
2013-10-07 20:59:00,73.2,46.1,29.97,WSW,248,8.1,8.4,38,0.00,CLR,,0.00,WeatherDisplay:10.37,2013-10-08 01:59:00,
2013-10-07 21:04:00,73.2,46.1,29.97,WSW,248,8.1,8.4,38,0.00,CLR,,0.00,WeatherDisplay:10.37,2013-10-08 02:04:00,
2013-10-07 21:09:00,73.2,46.1,29.97,WSW,248,8.1,8.4,38,0.00,CLR,,0.00,WeatherDisplay:10.37,2013-10-08 02:09:00,
2013-10-07 21:14:00,73.2,46.1,29.97,WSW,248,8.1,8.4,38,0.00,CLR,,0.00,WeatherDisplay:10.37,2013-10-08 02:14:00,
2013-10-07 21:19:00,73.2,46.1,29.97,WSW,248,8.1,8.4,38,0.00,CLR,,0.00,WeatherDisplay:10.37,2013-10-08 02:19:00,
2013-10-07 21:24:00,73.2,46.1,29.97,WSW,248,8.1,8.4,38,0.00,CLR,,0.00,WeatherDisplay:10.37,2013-10-08 02:24:00,
2013-10-07 21:29:00,73.2,46.1,29.97,WSW,248,8.1,8.4,38,0.00,CLR,,0.00,WeatherDisplay:10.37,2013-10-08 02:29:00,
2013-10-07 21:34:00,73.2,46.1,29.97,WSW,248,8.1,8.4,38,0.00,CLR,,0.00,WeatherDisplay:10.37,2013-10-08 02:34:00,
2013-10-07 21:39:00,73.2,46.1,29.97,WSW,248,8.1,8.4,38,0.00,CLR,,0.00,WeatherDisplay:10.37,2013-10-08 02:39:00,
2013-10-07 21:44:00,73.2,46.1,29.97,WSW,248,8.1,8.4,38,0.00,CLR,,0.00,WeatherDisplay:10.37,2013-10-08 02:44:00,
2013-10-07 21:49:00,73.2,46.1,29.97,WSW,248,8.1,8.4,38,0.00,CLR,,0.00,WeatherDisplay:10.37,2013-10-08 02:49:00,
2013-10-07 21:54:00,73.2,46.1,29.97,WSW,248,8.1,8.4,38,0.00,CLR,,0.00,WeatherDisplay:10.37,2013-10-08 02:54:00,
2013-10-07 21:59:00,73.2,46.1,29.97,WSW,248,8.1,8.4,38,0.00,CLR,,0.00,WeatherDisplay:10.37,2013-10-08 02:59:00,
2013-10-07 22:04:00,73.2,46.1,29.97,WSW,248,8.1,8.4,38,0.00,CLR,,0.00,WeatherDisplay:10.37,2013-10-08 03:04:00,
2013-10-07 22:09:00,73.2,46.1,29.97,WSW,248,8.1,8.4,38,0.00,CLR,,0.00,WeatherDisplay:10.37,2013-10-08 03:09:00,
2013-10-07 22:14:00,73.2,46.1,29.97,WSW,248,8.1,8.4,38,0.00,CLR,,0.00,WeatherDisplay:10.37,2013-10-08 03:14:00,
2013-10-07 22:19:00,73.2,46.1,29.97,WSW,248,8.1,8.4,38,0.00,CLR,,0.00,WeatherDisplay:10.37,2013-10-08 03:19:00,
2013-10-07 22:24:00,73.2,46.1,29.97,WSW,248,8.1,8.4,38,0.00,CLR,,0.00,WeatherDisplay:10.37,2013-10-08 03:24:00,
2013-10-07 22:29:00,73.2,46.1,29.97,WSW,248,8.1,8.4,38,0.00,CLR,,0.00,WeatherDisplay:10.37,2013-10-08 03:29:00,
2013-10-07 22:34:00,73.2,46.1,29.97,WSW,248,8.1,8.4,38,0.00,CLR,,0.00,WeatherDisplay:10.37,2013-10-08 03:34:00,
2013-10-07 22:39:00,73.2,46.1,29.97,WSW,248,8.1,8.4,38,0.00,CLR,,0.00,WeatherDisplay:10.37,2013-10-08 03:39:00,
2013-10-07 22:44:00,73.2,46.1,29.97,WSW,248,8.1,8.4,38,0.00,CLR,,0.00,WeatherDisplay:10.37,2013-10-08 03:44:00,
2013-10-07 22:49:00,73.2,46.1,29.97,WSW,248,8.1,8.4,38,0.00,CLR,,0.00,WeatherDisplay:10.37,2013-10-08 03:49:00,
2013-10-07 22:54:00,73.2,46.1,29.97,WSW,248,8.1,8.4,38,0.00,CLR,,0.00,WeatherDisplay:10.37,2013-10-08 03:54:00,
2013-10-07 22:59:00,73.2,46.1,29.97,WSW,248,8.1,8.4,38,0.00,CLR,,0.00,WeatherDisplay:10.37,2013-10-08 03:59:00,
2013-10-07 23:01:00,73.2,46.1,29.97,WSW,248,8.1,8.4,38,0.00,CLR,,0.00,WeatherDisplay:10.37,2013-10-08 04:01:00,
2013-10-07 23:03:00,73.2,46.1,29.97,WSW,248,8.1,8.4,38,0.00,CLR,,0.00,WeatherDisplay:10.37,2013-10-08 04:03:00,
2013-10-07 23:08:00,73.2,46.1,29.97,WSW,248,8.1,8.4,38,0.00,CLR,,0.00,WeatherDisplay:10.37,2013-10-08 04:08:00,
2013-10-07 23:13:00,73.2,46.1,29.97,WSW,248,8.1,8.4,38,0.00,CLR,,0.00,WeatherDisplay:10.37,2013-10-08 04:13:00,
2013-10-07 23:18:00,73.2,46.1,29.97,WSW,248,8.1,8.4,38,0.00,CLR,,0.00,WeatherDisplay:10.37,2013-10-08 04:18:00,
2013-10-07 23:23:00,73.2,46.1,29.97,WSW,248,8.1,8.4,38,0.00,CLR,,0.00,WeatherDisplay:10.37,2013-10-08 04:23:00,
2013-10-07 23:28:00,73.2,46.1,29.97,WSW,248,8.1,8.4,38,0.00,CLR,,0.00,WeatherDisplay:10.37,2013-10-08 04:28:00,
2013-10-07 23:33:00,73.2,46.1,29.97,WSW,248,8.1,8.4,38,0.00,CLR,,0.00,WeatherDisplay:10.37,2013-10-08 04:33:00,
2013-10-07 23:38:00,73.2,46.1,29.97,WSW,248,8.1,8.4,38,0.00,CLR,,0.00,WeatherDisplay:10.37,2013-10-08 04:38:00,
2013-10-07 23:43:00,73.2,46.1,29.97,WSW,248,8.1,8.4,38,0.00,CLR,,0.00,WeatherDisplay:10.37,2013-10-08 04:43:00,
2013-10-07 23:48:00,73.2,46.1,29.97,WSW,248,8.1,8.4,38,0.00,CLR,,0.00,WeatherDisplay:10.37,2013-10-08 04:48:00,
2013-10-07 23:53:00,73.2,46.1,29.97,WSW,248,8.1,8.4,38,0.00,CLR,,0.00,WeatherDisplay:10.37,2013-10-08 04:53:00,
2013-10-07 23:58:00,73.2,46.1,29.97,WSW,248,8.1,8.4,38,0.00,CLR,,0.00,WeatherDisplay:10.37,2013-10-08 04:58:00,